Time;durP1;ratioP1;P1;durP2;ratioP2;P2;SDS_P1;SDS_P2;PMS_P1;PMS_P2;Temp;Humidity;BMP_temperature;BMP_pressure;BME280_temperature;BME280_humidity;BME280_pressure;Samples;Min_cycle;Max_cycle;Signal;HPM_P1;HPM_P2
2023/09/20 00:00:29;;;;;;;14.85;5.35;;;25.10;76.40;;;;;;5072074;28;20098;-70
2023/09/20 00:02:56;;;;;;;14.90;5.18;;;25.10;75.80;;;;;;5075593;28;20511;-71
2023/09/20 00:05:22;;;;;;;12.43;4.78;;;25.00;75.30;;;;;;5075793;28;20111;-71
2023/09/20 00:07:50;;;;;;;15.30;4.75;;;25.00;75.10;;;;;;5092855;22;20064;-71
2023/09/20 00:10:18;;;;;;;13.32;4.75;;;25.00;74.60;;;;;;5095657;28;20093;-71
2023/09/20 00:12:44;;;;;;;21.08;4.72;;;24.90;74.70;;;;;;5094370;28;20020;-72
2023/09/20 00:15:11;;;;;;;16.15;4.75;;;24.90;74.60;;;;;;5096050;28;20498;-72
2023/09/20 00:17:37;;;;;;;17.67;5.28;;;24.90;74.30;;;;;;5096020;28;20036;-72
2023/09/20 00:20:12;;;;;;;11.70;4.75;;;24.80;74.30;;;;;;5109449;28;20016;-70
2023/09/20 00:22:43;;;;;;;18.02;4.72;;;24.80;74.30;;;;;;5113908;28;20471;-71
2023/09/20 00:25:13;;;;;;;16.10;4.80;;;24.80;74.40;;;;;;5096175;28;20032;-71
2023/09/20 00:27:40;;;;;;;12.45;4.22;;;24.80;74.60;;;;;;5095654;28;20117;-70
2023/09/20 00:30:10;;;;;;;16.95;5.15;;;24.80;74.50;;;;;;5094114;28;20071;-70
2023/09/20 00:32:36;;;;;;;10.98;4.93;;;24.80;74.40;;;;;;5095550;28;20039;-72
2023/09/20 00:35:02;;;;;;;13.55;4.80;;;24.80;74.50;;;;;;5093867;28;20032;-72
2023/09/20 00:37:30;;;;;;;13.65;4.88;;;24.80;74.40;;;;;;5093854;28;20021;-73
2023/09/20 00:39:55;;;;;;;12.40;4.07;;;24.80;74.40;;;;;;5093737;28;20040;-72
2023/09/20 00:42:21;;;;;;;13.50;4.60;;;24.80;74.10;;;;;;5095233;28;20028;-71
2023/09/20 00:44:47;;;;;;;14.95;5.05;;;24.80;74.30;;;;;;5094913;28;20040;-70
2023/09/20 00:47:14;;;;;;;12.88;4.65;;;24.90;74.20;;;;;;5095532;28;20032;-70
2023/09/20 00:49:46;;;;;;;18.45;4.88;;;24.80;73.90;;;;;;5093709;28;20089;-72
2023/09/20 00:52:13;;;;;;;10.65;4.05;;;24.80;73.70;;;;;;5095219;28;20371;-71
2023/09/20 00:54:40;;;;;;;16.85;4.70;;;24.80;73.90;;;;;;5094611;28;20101;-71
2023/09/20 00:57:09;;;;;;;12.32;5.05;;;24.70;73.70;;;;;;5094817;28;20356;-71
2023/09/20 00:59:36;;;;;;;14.15;4.25;;;24.70;73.80;;;;;;5094777;28;20067;-71
2023/09/20 01:02:03;;;;;;;14.35;4.57;;;24.70;73.80;;;;;;5094893;28;20032;-71
2023/09/20 01:04:29;;;;;;;13.02;4.63;;;24.70;73.90;;;;;;5094989;28;20498;-71
2023/09/20 01:06:55;;;;;;;12.13;4.28;;;24.70;73.70;;;;;;5094869;28;20036;-71
2023/09/20 01:09:24;;;;;;;14.52;4.47;;;24.70;73.80;;;;;;5094779;28;20040;-71
2023/09/20 01:11:51;;;;;;;10.52;4.25;;;24.70;73.60;;;;;;5094187;28;20028;-71
2023/09/20 01:14:18;;;;;;;15.68;4.57;;;24.70;73.70;;;;;;5088540;28;20502;-71
2023/09/20 01:16:43;;;;;;;12.05;4.43;;;24.70;73.30;;;;;;5094496;28;20028;-72
2023/09/20 01:19:09;;;;;;;11.82;4.28;;;24.70;73.30;;;;;;5094477;28;20046;-71
2023/09/20 01:21:52;;;;;;;16.42;4.78;;;24.70;73.20;;;;;;5094880;28;20108;-71
2023/09/20 01:24:20;;;;;;;12.88;4.50;;;24.80;73.20;;;;;;5094333;28;20103;-72
2023/09/20 01:26:49;;;;;;;16.00;4.80;;;24.80;73.20;;;;;;5094694;28;20050;-72
2023/09/20 01:29:14;;;;;;;16.05;4.65;;;24.70;73.00;;;;;;5094390;28;20032;-70
2023/09/20 01:31:40;;;;;;;14.40;4.53;;;24.70;72.70;;;;;;5094469;28;20039;-71
2023/09/20 01:34:06;;;;;;;15.85;4.75;;;24.70;72.90;;;;;;5094037;28;20075;-71
2023/09/20 01:36:32;;;;;;;15.52;4.53;;;24.70;72.90;;;;;;5093740;28;20040;-70
2023/09/20 01:38:58;;;;;;;13.73;4.40;;;24.70;73.40;;;;;;5092366;28;20040;-72
2023/09/20 01:41:25;;;;;;;18.17;5.22;;;24.70;72.90;;;;;;5092542;28;20039;-71
2023/09/20 01:43:51;;;;;;;17.48;4.20;;;24.60;72.70;;;;;;5092455;28;20035;-72
2023/09/20 01:46:17;;;;;;;12.63;4.28;;;24.60;72.60;;;;;;5093856;28;20036;-71
2023/09/20 01:48:42;;;;;;;13.95;4.45;;;24.60;72.70;;;;;;5093858;28;20032;-72
2023/09/20 01:51:08;;;;;;;12.60;4.57;;;24.50;72.60;;;;;;5093622;28;20032;-72
2023/09/20 01:53:34;;;;;;;14.73;4.57;;;24.50;72.60;;;;;;5092268;28;20036;-71
2023/09/20 01:56:00;;;;;;;9.95;3.97;;;24.50;72.50;;;;;;5095667;28;20085;-72
2023/09/20 01:58:26;;;;;;;11.40;4.40;;;24.50;72.40;;;;;;5113939;28;20170;-72
2023/09/20 02:00:51;;;;;;;12.35;4.05;;;24.50;72.30;;;;;;5113962;28;20114;-71
2023/09/20 02:03:17;;;;;;;11.63;4.07;;;24.60;72.30;;;;;;5114080;28;20039;-72
2023/09/20 02:05:46;;;;;;;9.30;4.10;;;24.50;72.00;;;;;;5113615;28;20104;-71
2023/09/20 02:08:11;;;;;;;10.80;4.20;;;24.50;71.80;;;;;;5113541;28;20047;-72
2023/09/20 02:10:38;;;;;;;14.50;4.20;;;24.50;71.70;;;;;;5113768;28;20027;-71
2023/09/20 02:13:04;;;;;;;13.55;4.65;;;24.40;71.60;;;;;;5113656;28;20055;-71
2023/09/20 02:15:31;;;;;;;12.18;4.20;;;24.40;71.50;;;;;;5113635;28;20434;-72
2023/09/20 02:17:57;;;;;;;11.35;3.97;;;24.40;71.10;;;;;;5113686;28;20020;-72
2023/09/20 02:20:24;;;;;;;13.05;4.32;;;24.40;70.70;;;;;;5113510;28;20116;-72
2023/09/20 02:22:55;;;;;;;11.77;4.28;;;24.30;70.50;;;;;;5113432;28;20034;-71
2023/09/20 02:25:22;;;;;;;9.05;3.58;;;24.30;70.50;;;;;;5112963;28;20027;-72
2023/09/20 02:27:53;;;;;;;9.52;3.65;;;24.30;70.40;;;;;;5095245;28;20063;-71
2023/09/20 02:30:24;;;;;;;11.65;3.78;;;24.30;69.70;;;;;;5113505;28;20035;-73
2023/09/20 02:32:57;;;;;;;15.52;3.95;;;24.20;69.40;;;;;;5113255;28;20036;-72
2023/09/20 02:35:24;;;;;;;14.48;3.97;;;24.10;69.40;;;;;;5113220;28;20041;-72
2023/09/20 02:37:51;;;;;;;9.65;4.10;;;24.20;69.50;;;;;;5113393;28;20024;-72
2023/09/20 02:40:23;;;;;;;12.43;3.88;;;24.20;69.50;;;;;;5095113;28;20070;-71
2023/09/20 02:42:59;;;;;;;10.00;3.67;;;24.20;68.70;;;;;;5094986;28;20031;-72
2023/09/20 02:45:29;;;;;;;10.40;3.95;;;24.20;68.50;;;;;;5113033;28;20111;-72
2023/09/20 02:47:57;;;;;;;11.48;4.30;;;24.20;69.40;;;;;;5113115;28;20329;-71
2023/09/20 02:50:23;;;;;;;8.73;3.97;;;24.10;69.40;;;;;;5113224;28;20162;-71
2023/09/20 02:52:50;;;;;;;9.82;3.53;;;24.10;69.40;;;;;;5112868;28;20107;-72
2023/09/20 02:55:19;;;;;;;13.13;3.90;;;24.10;69.90;;;;;;5113072;28;20043;-71
2023/09/20 02:57:45;;;;;;;9.30;3.67;;;24.20;69.70;;;;;;5112778;28;20151;-72
2023/09/20 03:00:15;;;;;;;16.35;4.80;;;24.20;69.80;;;;;;5113023;28;20055;-72
2023/09/20 03:02:45;;;;;;;10.48;3.80;;;24.20;70.30;;;;;;5113058;28;20146;-71
2023/09/20 03:05:24;;;;;;;12.88;4.32;;;24.20;70.00;;;;;;5113155;28;20207;-71
2023/09/20 03:07:51;;;;;;;13.18;4.25;;;24.10;69.40;;;;;;5084154;28;20048;-71
2023/09/20 03:10:21;;;;;;;10.30;4.05;;;24.10;70.00;;;;;;5092554;28;20383;-71
2023/09/20 03:12:51;;;;;;;10.20;4.15;;;24.00;70.20;;;;;;5092436;28;20043;-71
2023/09/20 03:15:19;;;;;;;14.05;4.47;;;24.00;70.20;;;;;;5092438;28;20032;-71
2023/09/20 03:17:45;;;;;;;10.00;3.90;;;24.00;70.00;;;;;;5074081;28;20476;-71
2023/09/20 03:20:12;;;;;;;11.15;3.72;;;24.00;70.30;;;;;;5092517;28;20028;-71
2023/09/20 03:22:38;;;;;;;9.85;4.40;;;24.00;70.00;;;;;;5074093;28;20044;-70
2023/09/20 03:25:09;;;;;;;12.82;4.03;;;24.00;70.10;;;;;;5092224;28;20388;-71
2023/09/20 03:27:40;;;;;;;8.90;4.47;;;24.00;70.00;;;;;;5092262;28;20032;-71
2023/09/20 03:30:08;;;;;;;10.40;4.30;;;24.00;69.70;;;;;;5092319;28;20064;-72
2023/09/20 03:32:33;;;;;;;11.00;4.47;;;24.10;70.00;;;;;;5074116;28;20050;-72
2023/09/20 03:34:59;;;;;;;10.10;4.65;;;24.00;70.40;;;;;;5093527;28;20052;-71
2023/09/20 03:37:27;;;;;;;12.70;4.80;;;24.10;70.10;;;;;;5096432;28;20030;-72
2023/09/20 03:39:52;;;;;;;10.55;3.78;;;24.10;70.10;;;;;;5096254;28;20428;-71
2023/09/20 03:42:18;;;;;;;14.52;4.82;;;24.10;70.10;;;;;;5096264;28;20028;-71
2023/09/20 03:44:45;;;;;;;10.10;3.90;;;24.20;70.30;;;;;;5096074;28;20488;-71
2023/09/20 03:47:11;;;;;;;13.25;3.95;;;24.20;70.10;;;;;;5096179;28;20035;-71
2023/09/20 03:49:37;;;;;;;13.77;4.18;;;24.20;70.20;;;;;;5096069;28;20032;-71
2023/09/20 03:52:02;;;;;;;8.25;3.83;;;24.20;70.20;;;;;;5095954;28;20043;-72
2023/09/20 03:54:29;;;;;;;10.85;4.50;;;24.10;69.90;;;;;;5096026;28;20125;-72
2023/09/20 03:56:55;;;;;;;9.65;4.32;;;24.20;70.00;;;;;;5095863;28;20113;-71
2023/09/20 03:59:20;;;;;;;12.50;4.80;;;24.20;70.20;;;;;;5096134;28;20035;-72
2023/09/20 04:01:46;;;;;;;11.82;4.40;;;24.20;70.20;;;;;;5095865;28;20341;-71
2023/09/20 04:04:16;;;;;;;13.25;4.20;;;24.10;70.30;;;;;;5095802;28;20059;-72
2023/09/20 04:06:44;;;;;;;10.25;3.67;;;24.10;70.10;;;;;;5078097;28;20490;-70
2023/09/20 04:09:10;;;;;;;14.60;4.32;;;24.10;70.10;;;;;;5116326;28;20024;-73
2023/09/20 04:11:40;;;;;;;10.38;4.32;;;24.10;70.10;;;;;;5115814;28;20152;-72
2023/09/20 04:14:10;;;;;;;10.40;4.38;;;24.10;70.30;;;;;;5097847;28;20056;-72
2023/09/20 04:16:40;;;;;;;15.35;4.80;;;24.10;70.20;;;;;;5116240;28;20078;-72
2023/09/20 04:19:06;;;;;;;11.45;3.97;;;24.10;70.10;;;;;;5097427;28;20375;-71
2023/09/20 04:21:32;;;;;;;12.95;4.28;;;24.00;70.50;;;;;;5115906;28;20483;-71
2023/09/20 04:24:04;;;;;;;16.05;4.40;;;24.00;70.30;;;;;;5115880;28;20119;-71
2023/09/20 04:26:29;;;;;;;11.50;4.70;;;23.90;70.10;;;;;;5115761;28;20027;-73
2023/09/20 04:28:55;;;;;;;17.75;4.97;;;24.00;70.50;;;;;;5115647;28;20039;-72
2023/09/20 04:31:23;;;;;;;13.63;5.03;;;23.90;70.50;;;;;;5115462;28;20080;-71
2023/09/20 04:33:48;;;;;;;12.00;4.90;;;23.90;70.40;;;;;;5115478;28;20043;-73
2023/09/20 04:36:14;;;;;;;13.05;4.57;;;24.00;70.80;;;;;;5115526;28;20027;-73
2023/09/20 04:38:41;;;;;;;18.83;5.00;;;24.00;71.10;;;;;;5115812;28;20031;-73
2023/09/20 04:41:11;;;;;;;14.95;5.30;;;24.00;71.10;;;;;;5115903;28;20055;-72
2023/09/20 04:43:38;;;;;;;9.25;4.13;;;24.00;71.20;;;;;;5115735;28;20107;-72
2023/09/20 04:46:04;;;;;;;19.83;5.18;;;24.00;71.50;;;;;;5115784;28;20475;-71
2023/09/20 04:48:30;;;;;;;13.75;5.10;;;24.00;71.30;;;;;;5114641;28;20042;-71
2023/09/20 04:50:56;;;;;;;17.42;5.32;;;24.00;71.20;;;;;;5115308;28;20100;-72
2023/09/20 04:53:23;;;;;;;15.68;4.97;;;24.10;71.40;;;;;;5115438;28;20088;-72
2023/09/20 04:55:49;;;;;;;12.15;5.05;;;24.00;71.70;;;;;;5115255;28;20027;-72
2023/09/20 04:58:17;;;;;;;13.68;4.78;;;24.00;71.80;;;;;;5115045;28;20495;-72
2023/09/20 05:00:43;;;;;;;15.45;5.90;;;24.00;71.70;;;;;;5096494;28;20491;-72
2023/09/20 05:03:10;;;;;;;13.93;4.40;;;24.00;71.70;;;;;;5114893;28;20039;-73
2023/09/20 05:05:36;;;;;;;15.43;4.78;;;24.10;71.80;;;;;;5115110;28;20118;-72
2023/09/20 05:08:03;;;;;;;14.60;5.03;;;24.00;71.50;;;;;;5114559;28;20522;-72
2023/09/20 05:10:29;;;;;;;14.80;4.93;;;24.00;71.50;;;;;;5114876;28;20111;-73
2023/09/20 05:12:55;;;;;;;16.27;4.65;;;24.10;71.70;;;;;;5114535;28;20093;-70
2023/09/20 05:15:23;;;;;;;13.20;4.60;;;24.10;71.80;;;;;;5114821;28;20028;-75
2023/09/20 05:17:49;;;;;;;13.77;4.25;;;24.10;71.90;;;;;;5114768;28;20031;-74
2023/09/20 05:20:14;;;;;;;20.83;5.70;;;24.10;72.10;;;;;;5114519;28;20032;-72
2023/09/20 05:22:41;;;;;;;14.18;4.93;;;24.10;72.10;;;;;;5114906;28;20035;-72
2023/09/20 05:25:08;;;;;;;13.55;4.68;;;24.10;72.40;;;;;;5114538;28;20038;-72
2023/09/20 05:27:34;;;;;;;11.20;4.47;;;24.10;72.30;;;;;;5114416;28;20118;-72
2023/09/20 05:30:00;;;;;;;16.38;4.85;;;24.10;72.10;;;;;;5114905;28;20391;-73
2023/09/20 05:32:26;;;;;;;11.95;3.95;;;24.10;72.10;;;;;;5114666;28;20591;-73
2023/09/20 05:34:52;;;;;;;17.17;4.97;;;24.10;71.90;;;;;;5096214;28;20093;-73
2023/09/20 05:37:18;;;;;;;18.02;5.20;;;24.10;71.80;;;;;;5114285;28;20031;-72
2023/09/20 05:39:47;;;;;;;12.88;4.80;;;24.10;71.90;;;;;;5096221;28;20036;-73
2023/09/20 05:42:14;;;;;;;19.15;5.30;;;24.10;71.80;;;;;;5114289;28;20462;-73
2023/09/20 05:44:40;;;;;;;11.40;4.93;;;24.10;71.90;;;;;;5114214;28;20478;-76
2023/09/20 05:47:08;;;;;;;10.82;4.30;;;24.20;71.80;;;;;;5114427;28;20027;-74
2023/09/20 05:49:34;;;;;;;20.20;5.13;;;24.20;71.90;;;;;;5096337;28;20070;-73
2023/09/20 05:52:02;;;;;;;18.23;5.25;;;24.20;72.00;;;;;;5114120;28;20052;-73
2023/09/20 05:54:29;;;;;;;15.23;5.10;;;24.30;72.10;;;;;;5114262;28;20397;-76
2023/09/20 05:56:54;;;;;;;13.05;5.03;;;24.30;72.20;;;;;;5114110;28;20015;-75
2023/09/20 05:59:22;;;;;;;21.63;5.78;;;24.30;72.10;;;;;;5112989;28;20039;-74
2023/09/20 06:01:47;;;;;;;13.07;5.40;;;24.30;72.10;;;;;;5113792;28;20020;-75
2023/09/20 06:04:13;;;;;;;13.25;4.82;;;24.30;72.10;;;;;;5114094;28;20043;-73
2023/09/20 06:06:39;;;;;;;15.07;5.15;;;24.30;71.50;;;;;;5114112;28;20498;-72
2023/09/20 06:09:05;;;;;;;14.05;4.40;;;24.30;71.00;;;;;;5114092;28;20114;-73
2023/09/20 06:11:32;;;;;;;15.18;5.00;;;24.40;70.80;;;;;;5095681;28;20023;-72
2023/09/20 06:13:57;;;;;;;13.40;4.75;;;24.40;70.20;;;;;;5095780;28;20494;-73
2023/09/20 06:16:23;;;;;;;11.45;4.68;;;24.40;70.10;;;;;;5095866;28;20028;-73
2023/09/20 06:18:50;;;;;;;13.15;4.70;;;24.50;69.70;;;;;;5113662;28;20047;-73
2023/09/20 06:21:17;;;;;;;14.02;4.63;;;24.60;69.60;;;;;;5113328;28;20031;-73
2023/09/20 06:23:46;;;;;;;11.90;5.10;;;24.70;69.30;;;;;;5113652;28;20055;-72
2023/09/20 06:26:12;;;;;;;14.82;5.05;;;24.80;69.40;;;;;;5095107;28;20031;-72
2023/09/20 06:28:42;;;;;;;20.80;5.03;;;24.80;69.10;;;;;;5095074;28;20027;-72
2023/09/20 06:31:12;;;;;;;15.20;5.00;;;24.80;69.00;;;;;;5113594;28;20030;-72
2023/09/20 06:33:47;;;;;;;16.73;5.18;;;24.90;68.90;;;;;;5113411;28;20556;-72
2023/09/20 06:36:22;;;;;;;14.73;5.00;;;24.90;68.60;;;;;;5113331;28;20082;-72
2023/09/20 06:38:49;;;;;;;19.02;4.82;;;24.90;67.30;;;;;;5113016;28;20140;-72
2023/09/20 06:41:15;;;;;;;14.05;5.35;;;24.90;67.90;;;;;;5113246;28;20479;-72
2023/09/20 06:43:42;;;;;;;23.42;8.07;;;24.90;68.40;;;;;;5095053;28;20077;-71
2023/09/20 06:46:09;;;;;;;18.20;5.97;;;25.00;67.90;;;;;;5113242;28;20032;-72
2023/09/20 06:48:37;;;;;;;16.52;5.00;;;25.00;67.80;;;;;;5112986;28;20124;-73
2023/09/20 06:51:03;;;;;;;15.45;4.90;;;25.00;67.40;;;;;;5112608;28;20417;-72
2023/09/20 06:53:30;;;;;;;19.10;5.93;;;25.00;67.40;;;;;;5112751;28;20074;-73
2023/09/20 06:55:59;;;;;;;19.95;6.22;;;25.00;67.30;;;;;;5112967;28;20038;-73
2023/09/20 06:58:25;;;;;;;16.23;4.55;;;25.00;67.30;;;;;;5112920;28;20073;-73
2023/09/20 07:00:52;;;;;;;21.08;5.15;;;25.00;67.30;;;;;;5112564;28;20031;-74
2023/09/20 07:03:18;;;;;;;23.33;6.97;;;25.00;67.30;;;;;;5113004;28;20024;-73
2023/09/20 07:05:44;;;;;;;21.52;6.65;;;25.00;67.20;;;;;;5113038;28;20044;-73
2023/09/20 07:08:10;;;;;;;19.13;5.72;;;25.00;67.20;;;;;;5112842;28;20048;-73
2023/09/20 07:10:41;;;;;;;14.85;5.07;;;25.10;67.20;;;;;;5114543;28;20028;-72
2023/09/20 07:13:09;;;;;;;19.58;6.93;;;25.10;66.80;;;;;;5098561;28;20099;-73
2023/09/20 07:15:36;;;;;;;32.00;10.63;;;25.00;67.20;;;;;;5099028;28;20066;-74
2023/09/20 07:18:11;;;;;;;14.98;6.30;;;25.00;67.20;;;;;;5116944;28;20080;-72
2023/09/20 07:20:41;;;;;;;19.83;5.85;;;25.00;67.30;;;;;;5116845;28;20027;-72
2023/09/20 07:23:11;;;;;;;18.65;7.28;;;25.00;66.60;;;;;;5116849;28;20043;-73
2023/09/20 07:25:38;;;;;;;20.17;5.82;;;25.00;67.30;;;;;;5117032;28;20059;-73
2023/09/20 07:28:06;;;;;;;21.35;7.00;;;25.10;67.60;;;;;;5116894;28;20039;-73
2023/09/20 07:30:34;;;;;;;11.98;5.53;;;25.10;67.30;;;;;;5116622;28;20028;-74
2023/09/20 07:33:03;;;;;;;21.90;6.72;;;25.10;67.90;;;;;;5116689;28;20501;-73
2023/09/20 07:35:37;;;;;;;16.25;6.40;;;25.20;68.20;;;;;;5098056;28;20032;-73
2023/09/20 07:38:04;;;;;;;;;;;25.20;68.40;;;;;;5117087;28;20031;-72
2023/09/20 07:40:36;;;;;;;24.15;7.80;;;25.20;68.40;;;;;;5097983;28;19994;-74
2023/09/20 07:43:06;;;;;;;19.48;7.53;;;25.30;68.20;;;;;;5116118;28;20386;-72
2023/09/20 07:45:38;;;;;;;24.98;7.95;;;25.30;68.70;;;;;;5115811;28;20032;-72
2023/09/20 07:48:16;;;;;;;20.80;8.30;;;25.40;69.90;;;;;;5115990;28;20111;-72
2023/09/20 07:50:51;;;;;;;24.20;8.82;;;25.40;70.20;;;;;;5115829;28;20114;-72
2023/09/20 07:53:19;;;;;;;25.08;7.88;;;25.40;70.50;;;;;;5097446;28;20507;-74
2023/09/20 07:56:06;;;;;;;24.08;8.02;;;25.40;71.10;;;;;;5115873;28;20088;-72
2023/09/20 07:58:36;;;;;;;20.25;7.65;;;25.40;70.90;;;;;;5097727;28;20047;-73
2023/09/20 08:01:12;;;;;;;23.15;9.48;;;25.40;72.50;;;;;;5116155;28;20035;-73
2023/09/20 08:03:38;;;;;;;23.10;7.53;;;25.40;72.70;;;;;;5116019;28;20153;-72
2023/09/20 08:06:09;;;;;;;23.17;8.75;;;25.50;73.20;;;;;;5115766;28;20395;-73
2023/09/20 08:08:35;;;;;;;23.45;8.38;;;25.50;73.10;;;;;;5115646;28;20044;-73
2023/09/20 08:11:01;;;;;;;23.35;9.00;;;25.50;73.80;;;;;;5116119;28;20036;-72
2023/09/20 08:13:27;;;;;;;20.38;7.93;;;25.50;74.50;;;;;;5116104;28;20119;-73
2023/09/20 08:15:52;;;;;;;20.50;8.15;;;25.50;75.00;;;;;;5115522;28;20085;-73
2023/09/20 08:21:04;;;;;;;31.02;8.75;;;25.50;75.00;;;;;;5115355;28;20050;-72
2023/09/20 09:02:15;;;;;;;22.98;6.40;;;26.00;73.00;;;;;;5115131;28;20108;-73
2023/09/20 09:04:49;;;;;;;24.70;18.60;;;26.10;73.00;;;;;;5114858;28;20038;-74
2023/09/20 09:07:17;;;;;;;20.90;8.82;;;26.20;71.40;;;;;;5091035;28;20097;-73
2023/09/20 09:09:43;;;;;;;15.35;5.70;;;26.20;71.70;;;;;;5076259;28;20024;-72
2023/09/20 09:12:11;;;;;;;15.90;6.60;;;26.30;71.00;;;;;;5094237;28;20059;-73
2023/09/20 09:14:38;;;;;;;20.70;7.15;;;26.30;70.30;;;;;;5094048;28;20040;-71
2023/09/20 09:17:06;;;;;;;18.63;6.38;;;26.50;70.80;;;;;;5094420;28;20078;-73
2023/09/20 09:19:33;;;;;;;20.75;6.47;;;26.50;70.80;;;;;;5094069;28;20024;-72
2023/09/20 09:21:59;;;;;;;19.75;6.80;;;26.50;70.60;;;;;;5094135;28;20086;-73
2023/09/20 09:24:27;;;;;;;20.88;7.22;;;26.50;70.10;;;;;;5093920;28;20107;-73
2023/09/20 09:27:14;;;;;;;18.98;6.28;;;26.60;69.90;;;;;;5093849;28;20035;-72
2023/09/20 09:29:42;;;;;;;19.00;6.25;;;26.60;69.80;;;;;;5094039;28;20040;-72
2023/09/20 09:32:08;;;;;;;19.23;5.82;;;26.70;69.60;;;;;;5075532;28;20439;-72
2023/09/20 09:34:34;;;;;;;18.98;5.70;;;26.70;69.00;;;;;;5093707;28;20122;-72
2023/09/20 09:37:00;;;;;;;18.63;5.85;;;26.70;68.40;;;;;;5093890;28;20051;-72
2023/09/20 09:39:25;;;;;;;16.60;5.05;;;26.70;68.00;;;;;;5093769;28;20072;-74
2023/09/20 09:41:51;;;;;;;18.15;5.50;;;26.70;67.70;;;;;;5093490;28;20044;-72
2023/09/20 09:44:17;;;;;;;17.73;5.55;;;26.70;67.20;;;;;;5093624;28;20522;-73
2023/09/20 09:46:43;;;;;;;19.45;5.15;;;26.80;67.00;;;;;;5093704;28;20036;-73
2023/09/20 09:49:11;;;;;;;21.60;6.47;;;26.80;66.60;;;;;;5075071;28;20032;-73
2023/09/20 09:51:45;;;;;;;21.73;6.07;;;26.90;66.50;;;;;;5093677;28;20032;-74
2023/09/20 09:54:13;;;;;;;;;;;27.00;66.40;;;;;;5075403;28;20055;-73
2023/09/20 09:56:40;;;;;;;17.15;5.57;;;27.00;65.60;;;;;;5093647;28;19904;-73
2023/09/20 09:59:06;;;;;;;17.83;5.18;;;27.10;65.80;;;;;;5074878;28;20036;-73
2023/09/20 10:01:36;;;;;;;22.30;4.78;;;27.10;65.30;;;;;;5075125;28;20034;-72
2023/09/20 10:04:10;;;;;;;17.67;5.85;;;27.20;65.10;;;;;;5075280;28;20059;-74
2023/09/20 10:06:55;;;;;;;15.18;6.22;;;27.20;64.70;;;;;;5093265;28;20028;-73
2023/09/20 10:09:31;;;;;;;13.68;5.10;;;27.30;64.50;;;;;;5093208;28;20048;-72
2023/09/20 10:11:57;;;;;;;18.27;4.78;;;27.30;64.10;;;;;;5093127;28;20032;-73
2023/09/20 10:14:23;;;;;;;15.38;5.13;;;27.30;63.60;;;;;;5093059;28;20079;-72
2023/09/20 10:16:49;;;;;;;23.10;5.43;;;27.30;63.50;;;;;;5092944;28;20060;-71
2023/09/20 10:19:16;;;;;;;18.92;5.65;;;27.30;63.20;;;;;;5092757;28;20028;-73
2023/09/20 10:22:08;;;;;;;18.42;6.15;;;27.40;63.40;;;;;;5092751;28;20032;-72
2023/09/20 10:24:53;;;;;;;17.77;6.22;;;27.40;63.00;;;;;;5092891;28;20111;-73
2023/09/20 10:27:21;;;;;;;14.32;6.30;;;27.50;63.40;;;;;;5092682;28;20502;-73
2023/09/20 10:30:11;;;;;;;20.27;8.00;;;27.60;63.50;;;;;;5092965;28;20028;-73
2023/09/20 10:32:38;;;;;;;18.23;6.85;;;27.70;63.80;;;;;;5092927;28;20028;-73
2023/09/20 10:35:27;;;;;;;21.27;5.65;;;27.70;64.10;;;;;;5092588;28;20036;-72
2023/09/20 10:38:07;;;;;;;24.05;6.75;;;27.80;64.80;;;;;;5092975;28;20058;-73
2023/09/20 10:40:45;;;;;;;25.17;6.32;;;27.90;64.80;;;;;;5092943;28;20111;-74
2023/09/20 10:43:34;;;;;;;22.67;6.70;;;27.90;64.60;;;;;;5092717;28;20035;-72
2023/09/20 10:46:17;;;;;;;15.30;5.93;;;28.00;64.70;;;;;;5065912;28;20127;-71
2023/09/20 10:48:48;;;;;;;12.45;5.82;;;28.00;64.40;;;;;;5092920;28;20115;-73
2023/09/20 10:51:41;;;;;;;18.60;6.25;;;28.10;64.50;;;;;;5092391;28;20024;-73
2023/09/20 10:54:22;;;;;;;23.83;6.60;;;28.10;64.10;;;;;;5092621;28;20036;-73
2023/09/20 10:56:51;;;;;;;18.17;5.60;;;28.20;64.60;;;;;;5092667;28;20483;-74
2023/09/20 10:59:25;;;;;;;22.27;6.32;;;28.20;64.70;;;;;;5092370;28;20040;-72
2023/09/20 11:02:12;;;;;;;18.73;6.53;;;28.20;64.60;;;;;;5092678;28;20103;-72
2023/09/20 11:04:39;;;;;;;18.95;6.38;;;28.20;63.90;;;;;;5092242;28;20123;-72
2023/09/20 11:07:06;;;;;;;15.15;5.90;;;28.30;63.60;;;;;;5095576;28;20075;-73
2023/09/20 11:09:38;;;;;;;14.77;5.82;;;28.30;63.20;;;;;;5094157;28;20034;-72
2023/09/20 11:12:09;;;;;;;13.38;5.35;;;28.30;63.60;;;;;;5112260;28;20062;-72
2023/09/20 11:14:40;;;;;;;16.15;5.43;;;28.30;63.60;;;;;;5112661;28;20447;-73
2023/09/20 11:17:06;;;;;;;19.58;5.57;;;28.30;63.20;;;;;;5094224;28;20040;-72
2023/09/20 11:19:33;;;;;;;14.05;5.95;;;28.30;63.50;;;;;;5094221;28;20038;-73
2023/09/20 11:22:00;;;;;;;19.90;6.07;;;28.30;64.40;;;;;;5112412;28;20051;-73
2023/09/20 11:24:29;;;;;;;17.20;5.70;;;28.30;64.10;;;;;;5112507;28;20491;-73
2023/09/20 11:26:55;;;;;;;19.27;5.07;;;28.30;64.10;;;;;;5094179;28;20406;-72
2023/09/20 11:29:21;;;;;;;21.63;5.22;;;28.30;64.20;;;;;;5112906;28;20059;-73
2023/09/20 11:31:51;;;;;;;13.57;5.97;;;28.30;64.10;;;;;;5112810;28;20028;-73
2023/09/20 11:34:17;;;;;;;19.20;5.75;;;28.30;64.20;;;;;;5112542;28;20592;-72
2023/09/20 11:36:46;;;;;;;19.27;5.53;;;28.30;65.10;;;;;;5112683;28;20024;-73
2023/09/20 11:39:14;;;;;;;18.42;6.15;;;28.30;65.00;;;;;;5112053;28;20047;-72
2023/09/20 11:41:44;;;;;;;16.95;5.20;;;28.30;65.40;;;;;;5112486;28;20039;-73
2023/09/20 11:44:10;;;;;;;10.00;4.80;;;28.30;65.60;;;;;;5112254;28;20038;-72
2023/09/20 11:46:37;;;;;;;13.60;5.13;;;28.30;65.60;;;;;;5112188;28;20038;-73
2023/09/20 11:49:04;;;;;;;19.38;5.30;;;28.30;65.50;;;;;;5111972;28;20022;-72
2023/09/20 11:51:34;;;;;;;15.35;5.25;;;28.30;66.10;;;;;;5111731;28;20074;-72
2023/09/20 11:54:02;;;;;;;14.93;5.45;;;28.30;66.10;;;;;;5111861;28;20059;-71
2023/09/20 11:56:31;;;;;;;15.93;5.53;;;28.40;65.80;;;;;;5113568;28;20101;-74
2023/09/20 11:59:09;;;;;;;15.50;5.65;;;28.40;65.00;;;;;;5116001;28;20395;-73
2023/09/20 12:01:40;;;;;;;17.55;5.95;;;28.40;65.20;;;;;;5115884;28;20114;-74
2023/09/20 12:04:07;;;;;;;11.57;4.93;;;28.40;65.00;;;;;;5115725;28;20043;-72
2023/09/20 12:06:33;;;;;;;15.00;4.20;;;28.40;64.50;;;;;;5116041;28;20027;-73
2023/09/20 12:09:01;;;;;;;20.13;4.50;;;28.40;63.70;;;;;;5077579;28;20101;-72
2023/09/20 12:11:28;;;;;;;14.02;4.63;;;28.40;63.90;;;;;;5095200;28;20039;-72
2023/09/20 12:13:54;;;;;;;14.13;4.72;;;28.40;63.60;;;;;;5095362;28;20040;-73
2023/09/20 12:16:23;;;;;;;16.35;5.43;;;28.40;63.00;;;;;;5095138;28;20399;-72
2023/09/20 12:18:55;;;;;;;12.95;4.18;;;28.40;62.60;;;;;;5095175;28;20391;-74
2023/09/20 12:21:22;;;;;;;13.45;3.92;;;28.40;62.70;;;;;;5077017;28;20077;-73
2023/09/20 12:23:49;;;;;;;14.35;4.05;;;28.40;62.80;;;;;;5095097;28;20041;-74
2023/09/20 12:26:16;;;;;;;15.00;4.38;;;28.40;63.00;;;;;;5095103;28;20028;-72
2023/09/20 12:28:43;;;;;;;15.45;4.68;;;28.40;63.50;;;;;;5094867;28;20048;-72
2023/09/20 12:31:09;;;;;;;12.75;4.57;;;28.50;63.10;;;;;;5094788;28;20379;-72
2023/09/20 12:33:35;;;;;;;18.25;4.35;;;28.50;63.30;;;;;;5095033;28;20044;-73
2023/09/20 12:36:01;;;;;;;11.98;4.20;;;28.50;64.40;;;;;;5094948;28;20039;-73
2023/09/20 12:38:29;;;;;;;19.73;4.75;;;28.60;63.70;;;;;;5095099;28;20497;-73
2023/09/20 12:40:56;;;;;;;17.58;5.30;;;28.60;64.60;;;;;;5094659;28;20024;-74
2023/09/20 12:43:22;;;;;;;16.77;4.30;;;28.60;65.20;;;;;;5094620;28;20051;-72
2023/09/20 12:45:54;;;;;;;16.70;4.10;;;28.70;65.20;;;;;;5094681;28;20111;-73
2023/09/20 12:48:21;;;;;;;17.30;4.40;;;28.70;63.70;;;;;;5094537;28;20044;-72
2023/09/20 12:50:46;;;;;;;12.60;4.45;;;28.70;64.30;;;;;;5094663;28;20381;-73
2023/09/20 12:53:12;;;;;;;11.07;3.75;;;28.80;63.70;;;;;;5094591;28;20036;-73
2023/09/20 12:55:39;;;;;;;14.05;4.30;;;28.80;63.60;;;;;;5094781;28;20036;-73
2023/09/20 12:58:06;;;;;;;10.90;3.45;;;28.90;63.80;;;;;;5094673;28;20032;-72
2023/09/20 13:00:39;;;;;;;14.48;4.25;;;28.90;64.20;;;;;;5094435;28;20526;-73
2023/09/20 13:03:07;;;;;;;12.52;3.65;;;28.90;64.00;;;;;;5094224;28;20028;-74
2023/09/20 13:05:34;;;;;;;13.93;4.93;;;28.90;63.80;;;;;;5094707;28;20102;-74
2023/09/20 13:08:00;;;;;;;10.63;3.53;;;28.80;64.00;;;;;;5105156;28;20126;-73
2023/09/20 13:10:27;;;;;;;15.13;3.80;;;28.80;63.70;;;;;;5114993;28;20069;-74
2023/09/20 13:12:53;;;;;;;12.55;3.83;;;28.80;63.70;;;;;;5096416;28;20027;-73
2023/09/20 13:15:20;;;;;;;15.85;4.05;;;28.80;63.70;;;;;;5096358;28;20062;-72
2023/09/20 13:17:55;;;;;;;17.20;4.50;;;28.80;64.00;;;;;;5114366;28;20040;-72
2023/09/20 13:20:24;;;;;;;9.85;4.03;;;28.70;64.10;;;;;;5114344;28;20491;-72
2023/09/20 13:22:52;;;;;;;12.75;4.70;;;28.70;63.80;;;;;;5114144;28;20128;-72
2023/09/20 13:25:19;;;;;;;9.75;4.03;;;28.70;63.90;;;;;;5114137;28;20062;-72